首页
METAR-TAF:

METAR-TAF

机场 :

阿尔伯特, 法国

纬度: 49-58-21N, 经度: 002-41-29E, 海拔: 111米

当前天气观测

该预报发布于31分钟前的07:30 UTC
风速3节,风向东转东南
温度 3°C
湿度 100%
气压 1010 hPa
能見度: 8000
阴天层高于3900英尺

METAR: LFAQ 170730Z AUTO 11003KT 8000 OVC039 03/03 Q1010 TEMPO 3000 BR

时间: 09:01 (08:01 UTC)

预报

该预报发布于3小时和1分钟前的05:00 UTC
预报有效从17日的 06点(UTC)到 17日的 15点(UTC)
风速5节,风向东转东南
能見度: 7000
多云层高于3500英尺
短暂存在
从 17日的 06点(UTC)到 17日的 09点(UTC)
能見度: 3000
轻雾

TAF: LFAQ 170500Z 1706/1715 12005KT 7000 BKN035 TEMPO 1706/1709 3000 BR

超过4000个机场的气象观测和天气预报(METAR&TAF报告)。

可查询的气象台以黄色和红色小点在地图上表示。

将鼠标移到小点上方,可查看气象台名称。

然后点击查看天气观测和预报。

如需切换地图:点击带黑十字的绿色按钮放大地图;点击带横线的绿色按钮缩小地图;或者点击绿色箭头查看邻近地区的地图。


METAR-TAF: